Terminal Aerodrome Forecast
Issued by NWS

Home | Current Version | Previous Version | Text Only | Print | Product List | Glossary On
Versions: 1 2 3 4 5 6 7 8 9 10 11 12 13 14 15 16 17 18 19 20 21 22 23
000
FTUS41 KBGM 011700
TAFITH
TAF
KITH 011720Z 0118/0218 03004KT 6SM -SN OVC035
      TEMPO 0118/0121 4SM -SN OVC015
     FM012100 05004KT 3SM -SN OVC015
      TEMPO 0121/0123 1SM -SN
     FM012300 09005KT 1SM -SN OVC015
     FM020800 08004KT 3/4SM -SN OVC008=

USA.gov is the U.S. government's official web portal to all federal, state and local government web resources and services.